createdAt,value
2022-11-19T05:00:38.431Z,5.70
2022-11-19T05:03:09.927Z,5.70
2022-11-19T05:05:41.442Z,5.40
2022-11-19T05:08:12.931Z,5.20
2022-11-19T05:10:44.472Z,5.20
2022-11-19T05:13:15.971Z,5.20
2022-11-19T05:15:48.842Z,5.10
2022-11-19T05:18:20.383Z,5.00
2022-11-19T05:20:51.909Z,5.00
2022-11-19T05:23:23.428Z,5.00
2022-11-19T05:25:54.934Z,5.00
2022-11-19T05:28:37.973Z,5.00
2022-11-19T05:31:11.677Z,5.00
2022-11-19T05:33:43.195Z,4.90
2022-11-19T05:36:14.721Z,4.90
2022-11-19T05:38:46.247Z,4.80
2022-11-19T05:41:17.768Z,4.80
2022-11-19T05:43:49.292Z,4.70
2022-11-19T05:46:22.147Z,4.80
2022-11-19T05:48:53.928Z,4.90
2022-11-19T05:53:57.339Z,4.80
2022-11-19T05:56:28.881Z,4.70
2022-11-19T05:59:00.377Z,4.70
2022-11-19T06:01:33.248Z,4.60
2022-11-19T06:04:04.932Z,4.70
2022-11-19T06:06:36.454Z,4.60
2022-11-19T06:09:08.043Z,4.70
2022-11-19T06:11:39.589Z,4.70
2022-11-19T06:14:11.079Z,4.60
2022-11-19T06:16:44.015Z,4.50
2022-11-19T06:24:19.382Z,4.20
2022-11-19T06:26:50.902Z,4.10
2022-11-19T06:29:22.730Z,4.10
2022-11-19T06:34:27.583Z,4.00
2022-11-19T06:36:59.159Z,4.00
2022-11-19T06:39:30.667Z,3.90
2022-11-19T06:42:02.196Z,4.00
2022-11-19T06:44:33.705Z,4.00
2022-11-19T06:49:38.459Z,4.10
2022-11-19T06:52:09.974Z,4.10
2022-11-19T06:54:43.243Z,4.10
2022-11-19T06:57:15.135Z,4.00
2022-11-19T06:59:46.635Z,4.00
2022-11-19T07:02:21.400Z,4.00
2022-11-19T07:04:54.768Z,4.00
2022-11-19T07:07:26.354Z,3.90
2022-11-19T07:09:57.893Z,3.90
2022-11-19T07:12:29.394Z,3.90
2022-11-19T07:15:04.333Z,3.80
2022-11-19T07:17:36.344Z,3.90
2022-11-19T07:20:10.081Z,3.90
2022-11-19T07:22:41.593Z,3.90
2022-11-19T07:25:13.105Z,3.90
2022-11-19T07:27:44.626Z,4.00
2022-11-19T07:30:16.650Z,4.00
2022-11-19T07:32:48.164Z,3.90
2022-11-19T07:35:20.996Z,3.90
2022-11-19T07:37:52.550Z,3.70
2022-11-19T07:40:24.047Z,3.80
2022-11-19T07:42:55.584Z,3.80
2022-11-19T07:45:27.091Z,3.70
2022-11-19T07:47:58.615Z,3.80
2022-11-19T07:50:31.585Z,3.90
2022-11-19T07:53:03.096Z,3.90
2022-11-19T07:55:34.616Z,3.90
2022-11-19T07:58:06.160Z,3.90
2022-11-19T08:00:37.669Z,3.90
2022-11-19T08:03:09.221Z,4.00
2022-11-19T08:05:42.056Z,4.00
2022-11-19T08:08:13.572Z,3.90
2022-11-19T08:10:45.085Z,3.90
2022-11-19T08:13:16.607Z,4.00
2022-11-19T08:15:48.115Z,3.90
2022-11-19T08:18:19.648Z,3.90
2022-11-19T08:20:52.503Z,3.30
2022-11-19T08:23:24.049Z,3.90
2022-11-19T08:25:55.541Z,5.00
2022-11-19T08:28:27.087Z,4.00
2022-11-19T08:31:04.855Z,4.10
2022-11-19T08:33:36.400Z,4.10
2022-11-19T08:36:09.262Z,4.10
2022-11-19T08:38:40.792Z,4.00
2022-11-19T08:41:12.294Z,4.10
2022-11-19T08:43:43.827Z,4.20
2022-11-19T08:46:15.334Z,4.20
2022-11-19T08:48:46.870Z,4.30
2022-11-19T08:51:19.713Z,4.20
2022-11-19T08:53:51.496Z,4.20
2022-11-19T08:56:23.049Z,4.10
2022-11-19T08:58:58.511Z,4.20
2022-11-19T09:01:32.859Z,4.00
2022-11-19T09:06:37.638Z,4.20
2022-11-19T09:09:09.176Z,4.30
2022-11-19T09:11:42.872Z,4.20
2022-11-19T09:14:14.725Z,4.20
2022-11-19T09:16:46.250Z,4.20
2022-11-19T09:19:17.836Z,4.30
2022-11-19T09:21:50.709Z,4.20
2022-11-19T09:24:22.558Z,4.20
2022-11-19T09:26:57.175Z,4.20
2022-11-19T09:29:32.518Z,4.20
2022-11-19T09:32:04.263Z,4.30
2022-11-19T09:34:35.795Z,4.40
2022-11-19T09:37:08.675Z,4.50
2022-11-19T09:39:40.224Z,4.50
2022-11-19T09:42:13.748Z,4.70
2022-11-19T09:44:53.692Z,4.50
2022-11-19T09:47:28.700Z,4.50
2022-11-19T09:50:03.287Z,4.60
2022-11-19T09:55:12.063Z,4.50
2022-11-19T09:57:44.437Z,4.40
2022-11-19T10:00:16.680Z,4.50
2022-11-19T10:02:48.285Z,4.50
2022-11-19T10:05:22.973Z,4.50
2022-11-19T10:07:55.877Z,4.50
2022-11-19T10:10:32.920Z,4.40
2022-11-19T10:13:15.503Z,4.40
2022-11-19T10:15:53.241Z,4.40
2022-11-19T10:20:59.272Z,4.60
2022-11-19T10:23:32.612Z,4.50
2022-11-19T10:26:06.646Z,4.50
2022-11-19T10:28:38.485Z,4.50
2022-11-19T10:31:16.584Z,4.30
2022-11-19T10:33:48.799Z,4.70
2022-11-19T10:36:21.798Z,4.50
2022-11-19T10:38:54.787Z,4.50
2022-11-19T10:41:30.419Z,4.60
2022-11-19T10:46:33.900Z,4.70
2022-11-19T10:49:05.432Z,4.60
2022-11-19T10:51:38.489Z,4.70
2022-11-19T10:56:43.247Z,4.60
2022-11-19T10:59:15.500Z,4.60
2022-11-19T11:01:47.258Z,4.40
2022-11-19T11:04:19.272Z,4.50
2022-11-19T11:06:51.453Z,4.50
2022-11-19T11:09:29.771Z,4.50
2022-11-19T11:12:03.939Z,4.50
2022-11-19T11:14:35.458Z,4.40
2022-11-19T11:17:16.076Z,4.60
2022-11-19T11:19:55.167Z,4.50
2022-11-19T11:22:26.809Z,4.50
2022-11-19T11:25:02.708Z,4.70
2022-11-19T11:27:38.650Z,4.60
2022-11-19T11:30:16.384Z,4.70
2022-11-19T11:32:47.861Z,4.60
2022-11-19T11:35:28.981Z,4.60
2022-11-19T11:38:00.537Z,4.60
2022-11-19T11:40:32.063Z,4.70
2022-11-19T11:43:04.888Z,4.70
2022-11-19T11:45:36.416Z,4.70
2022-11-19T11:48:08.856Z,4.90
2022-11-19T11:50:40.379Z,4.90
2022-11-19T11:53:13.469Z,4.90
2022-11-19T11:55:44.974Z,4.90
2022-11-19T11:58:27.711Z,4.90
2022-11-19T12:01:15.692Z,4.80
2022-11-19T12:06:28.761Z,5.00
2022-11-19T12:09:00.495Z,4.90
2022-11-19T12:14:09.620Z,5.10
2022-11-19T12:16:44.798Z,5.20
2022-11-19T12:19:31.217Z,5.10
2022-11-19T12:22:04.544Z,5.20
2022-11-19T12:24:48.200Z,5.20
2022-11-19T12:27:20.053Z,5.10
2022-11-19T12:29:54.939Z,5.20
2022-11-19T12:32:35.320Z,5.10
2022-11-19T12:35:10.007Z,5.10
2022-11-19T12:37:45.340Z,5.00
2022-11-19T12:40:20.112Z,4.90
2022-11-19T12:45:26.932Z,5.00
2022-11-19T12:48:02.492Z,4.80
2022-11-19T12:50:34.962Z,5.00
2022-11-19T12:53:10.042Z,4.90
2022-11-19T12:55:44.573Z,4.90
2022-11-19T12:58:16.947Z,5.00
2022-11-19T13:00:51.392Z,5.10
2022-11-19T13:03:25.432Z,5.10
2022-11-19T13:05:57.419Z,5.00
2022-11-19T13:08:30.571Z,5.00
2022-11-19T13:11:04.711Z,5.00
2022-11-19T13:13:37.525Z,5.00
2022-11-19T13:16:10.768Z,4.90
2022-11-19T13:18:43.041Z,5.00
2022-11-19T13:21:16.726Z,4.90
2022-11-19T13:23:48.227Z,4.90
2022-11-19T13:26:22.522Z,4.90
2022-11-19T13:28:54.412Z,5.00
2022-11-19T13:31:30.114Z,4.90
2022-11-19T13:34:02.571Z,4.90
2022-11-19T13:36:35.165Z,4.80
2022-11-19T13:39:10.486Z,4.80
2022-11-19T13:41:42.685Z,4.80
2022-11-19T13:44:14.182Z,4.80
2022-11-19T13:46:47.333Z,4.80
2022-11-19T13:49:20.541Z,4.80
2022-11-19T13:51:52.958Z,4.90
2022-11-19T13:54:25.299Z,4.80
2022-11-19T13:56:56.994Z,4.80
2022-11-19T14:02:23.222Z,5.00
2022-11-19T14:05:02.252Z,4.80
2022-11-19T14:07:37.424Z,4.70
2022-11-19T14:10:11.812Z,4.80
2022-11-19T14:12:49.600Z,4.70
2022-11-19T14:15:22.945Z,4.70
2022-11-19T14:17:56.556Z,4.80
2022-11-19T14:20:35.402Z,4.90
2022-11-19T14:25:45.166Z,4.80
2022-11-19T14:28:34.447Z,4.80
2022-11-19T14:31:05.960Z,4.70
2022-11-19T14:33:42.327Z,4.60
2022-11-19T14:36:14.306Z,4.60
2022-11-19T14:38:46.701Z,4.60
2022-11-19T14:41:21.160Z,4.60
2022-11-19T14:44:02.835Z,4.60
2022-11-19T14:46:34.427Z,4.60
2022-11-19T14:49:13.755Z,4.60
2022-11-19T14:51:45.424Z,4.70
2022-11-19T14:54:20.799Z,4.70
2022-11-19T14:57:16.076Z,4.80
2022-11-19T14:59:48.411Z,4.70
2022-11-19T15:02:24.298Z,4.60
2022-11-19T15:07:35.681Z,4.80
2022-11-19T15:10:28.220Z,4.60
2022-11-19T15:13:15.878Z,4.60
2022-11-19T15:15:47.802Z,4.50
2022-11-19T15:18:27.796Z,4.70
2022-11-19T15:21:06.915Z,4.60
2022-11-19T15:23:40.732Z,4.50
2022-11-19T15:26:14.424Z,4.50
2022-11-19T15:28:48.060Z,4.50
2022-11-19T15:31:25.799Z,4.60
2022-11-19T15:34:00.968Z,4.60
2022-11-19T15:36:33.321Z,4.50
2022-11-19T15:39:09.596Z,4.70
2022-11-19T15:41:42.442Z,4.60
2022-11-19T15:44:15.029Z,4.50
2022-11-19T15:46:47.670Z,4.50
2022-11-19T15:49:20.717Z,4.50
2022-11-19T15:51:57.699Z,4.60
2022-11-19T15:54:30.758Z,4.50
2022-11-19T15:57:02.815Z,4.70
2022-11-19T15:59:34.679Z,4.50
2022-11-19T16:02:14.079Z,4.50
2022-11-19T16:04:45.606Z,4.50
2022-11-19T16:07:21.115Z,4.50
2022-11-19T16:09:53.978Z,4.50
2022-11-19T16:12:25.732Z,4.50
2022-11-19T16:14:57.242Z,4.60
2022-11-19T16:17:38.263Z,4.40
2022-11-19T16:20:17.364Z,5.20
2022-11-19T16:22:50.563Z,4.50
2022-11-19T16:25:26.015Z,4.50
2022-11-19T16:27:58.506Z,4.40
2022-11-19T16:30:30.996Z,4.40
2022-11-19T16:33:02.548Z,4.40
2022-11-19T16:35:34.058Z,4.40
2022-11-19T16:38:05.568Z,4.50
2022-11-19T16:40:38.399Z,4.60
2022-11-19T16:43:09.962Z,4.40
2022-11-19T16:45:41.471Z,4.60
2022-11-19T16:48:37.582Z,4.50
2022-11-19T16:51:23.976Z,4.60
2022-11-19T16:53:55.469Z,4.50
2022-11-19T16:56:28.324Z,4.60
2022-11-19T16:59:01.082Z,4.50
2022-11-19T17:01:32.663Z,4.50
2022-11-19T17:04:04.689Z,4.40
2022-11-19T17:06:36.354Z,4.50
2022-11-19T17:09:07.943Z,4.40
2022-11-19T17:11:49.271Z,4.40
2022-11-19T17:14:23.073Z,4.40
2022-11-19T17:16:55.001Z,4.30
2022-11-19T17:19:26.871Z,4.30
2022-11-19T17:21:58.620Z,4.40
2022-11-19T17:24:30.944Z,4.30
2022-11-19T17:27:04.138Z,4.40
2022-11-19T17:29:35.642Z,4.20
2022-11-19T17:32:07.170Z,4.40
2022-11-19T17:34:42.389Z,4.30
2022-11-19T17:37:13.905Z,4.50
2022-11-19T17:39:45.406Z,4.30
2022-11-19T17:42:18.305Z,4.30
2022-11-19T17:44:49.799Z,4.50
2022-11-19T17:47:23.203Z,4.30
2022-11-19T17:49:55.463Z,4.50
2022-11-19T17:52:27.491Z,4.50
2022-11-19T17:55:02.274Z,4.40
2022-11-19T17:57:38.415Z,4.20
2022-11-19T18:00:14.351Z,4.30
2022-11-19T18:02:45.859Z,4.30
2022-11-19T18:05:18.176Z,4.10
2022-11-19T18:07:49.704Z,4.10
2022-11-19T18:10:21.250Z,4.20
2022-11-19T18:12:54.348Z,4.10
2022-11-19T18:15:26.064Z,4.20
2022-11-19T18:17:57.573Z,4.10
2022-11-19T18:20:29.099Z,4.10
2022-11-19T18:23:00.631Z,4.20
2022-11-19T18:25:32.202Z,4.10
2022-11-19T18:28:05.056Z,4.10
2022-11-19T18:30:36.546Z,4.30
2022-11-19T18:33:08.662Z,4.20
2022-11-19T18:35:40.166Z,4.20
2022-11-19T18:38:11.679Z,4.20
2022-11-19T18:43:16.456Z,4.20
2022-11-19T18:45:47.949Z,4.00
2022-11-19T18:48:19.491Z,4.10
2022-11-19T18:50:51.394Z,4.20
2022-11-19T18:53:22.939Z,4.00
2022-11-19T18:55:54.452Z,4.00
2022-11-19T18:58:27.314Z,4.00
2022-11-19T19:01:02.091Z,4.00
2022-11-19T19:03:33.756Z,4.10
2022-11-19T19:06:05.871Z,4.20
2022-11-19T19:08:37.414Z,4.00
2022-11-19T19:11:08.922Z,4.10
2022-11-19T19:13:41.817Z,4.20
2022-11-19T19:16:13.430Z,4.20
2022-11-19T19:18:44.968Z,4.00
2022-11-19T19:21:17.382Z,4.20
2022-11-19T19:23:49.118Z,4.10
2022-11-19T19:26:20.688Z,4.10
2022-11-19T19:28:53.906Z,4.00
2022-11-19T19:31:25.417Z,3.90
2022-11-19T19:33:56.928Z,4.10
2022-11-19T19:36:28.450Z,4.00
2022-11-19T19:39:00.115Z,3.90
2022-11-19T19:41:31.611Z,4.00
2022-11-19T19:44:04.813Z,3.90
2022-11-19T19:46:36.320Z,3.90
2022-11-19T19:49:07.866Z,4.10
2022-11-19T19:51:39.361Z,4.00
2022-11-19T19:54:10.890Z,4.10
2022-11-19T19:56:42.408Z,4.10
2022-11-19T19:59:15.256Z,4.10
2022-11-19T20:01:46.756Z,4.00
2022-11-19T20:04:18.340Z,4.00
2022-11-19T20:06:49.868Z,4.00
2022-11-19T20:09:21.380Z,4.10
2022-11-19T20:11:52.898Z,4.00
2022-11-19T20:14:25.763Z,4.00
2022-11-19T20:24:32.884Z,4.20
2022-11-19T20:27:04.391Z,4.20
2022-11-19T20:29:37.271Z,4.00
2022-11-19T20:32:08.766Z,3.90
2022-11-19T20:34:40.279Z,3.90
2022-11-19T20:37:11.780Z,3.80
2022-11-19T20:39:43.313Z,4.00
2022-11-19T20:42:14.821Z,4.10
2022-11-19T20:44:47.691Z,3.90
2022-11-19T20:47:19.194Z,4.00
2022-11-19T20:52:22.594Z,4.10
2022-11-19T20:54:54.112Z,4.00
2022-11-19T20:57:25.631Z,4.10
2022-11-19T20:59:58.516Z,4.00
2022-11-19T21:02:30.079Z,4.10
2022-11-19T21:05:01.646Z,4.00
2022-11-19T21:10:07.973Z,4.20
2022-11-19T21:12:39.683Z,4.00
2022-11-19T21:15:12.526Z,4.00
2022-11-19T21:17:44.035Z,3.90
2022-11-19T21:20:15.617Z,4.00
2022-11-19T21:22:47.138Z,4.00
2022-11-19T21:25:18.703Z,4.00
2022-11-19T21:27:50.209Z,4.00
2022-11-19T21:30:23.076Z,3.90
2022-11-19T22:56:30.752Z,3.90
2022-11-19T22:59:04.456Z,3.90
